createdAt,value
2022-10-28T00:01:39.842Z,4.63
2022-10-28T00:04:09.698Z,4.40
2022-10-28T00:06:36.912Z,4.15
2022-10-28T00:09:11.268Z,4.53
2022-10-28T00:11:38.924Z,4.55
2022-10-28T00:14:07.257Z,4.72
2022-10-28T00:16:36.990Z,5.28
2022-10-28T00:19:05.438Z,4.43
2022-10-28T00:21:34.677Z,4.30
2022-10-28T00:24:01.278Z,5.28
2022-10-28T00:26:30.878Z,4.18
2022-10-28T00:29:00.272Z,4.72
2022-10-28T00:31:28.281Z,4.45
2022-10-28T00:33:55.449Z,4.45
2022-10-28T00:36:21.885Z,4.80
2022-10-28T00:38:50.063Z,4.75
2022-10-28T00:41:29.029Z,5.10
2022-10-28T00:43:58.613Z,4.45
2022-10-28T00:46:32.072Z,4.65
2022-10-28T00:49:04.683Z,4.32
2022-10-28T00:51:33.022Z,4.47
2022-10-28T00:53:59.796Z,4.35
2022-10-28T00:56:30.860Z,4.43
2022-10-28T00:59:00.769Z,3.88
2022-10-28T01:01:27.465Z,4.13
2022-10-28T01:03:55.930Z,4.17
2022-10-28T01:06:23.962Z,5.20
2022-10-28T01:08:50.395Z,4.30
2022-10-28T01:11:30.062Z,4.38
2022-10-28T01:14:28.744Z,4.22
2022-10-28T01:16:55.364Z,3.53
2022-10-28T01:19:59.834Z,3.85
2022-10-28T01:22:58.743Z,3.60
2022-10-28T01:25:50.368Z,4.00
2022-10-28T01:28:44.449Z,4.18
2022-10-28T01:31:10.908Z,4.10
2022-10-28T01:33:46.788Z,4.30
2022-10-28T01:36:29.302Z,4.65
2022-10-28T01:39:18.182Z,4.55
2022-10-28T01:42:00.784Z,4.20
2022-10-28T01:44:46.058Z,4.55
2022-10-28T01:47:28.098Z,3.88
2022-10-28T01:49:57.053Z,4.03
2022-10-28T01:52:26.972Z,3.63
2022-10-28T01:54:58.466Z,4.20
2022-10-28T01:57:27.977Z,5.03
2022-10-28T01:59:55.656Z,4.60
2022-10-28T02:04:48.894Z,4.63
2022-10-28T02:07:16.664Z,3.63
2022-10-28T02:10:16.717Z,4.28
2022-10-28T02:12:44.867Z,3.75
2022-10-28T02:15:31.422Z,3.75
2022-10-28T02:18:13.430Z,4.03
2022-10-28T02:20:52.997Z,3.80
2022-10-28T02:23:40.444Z,3.63
2022-10-28T02:26:17.879Z,3.78
2022-10-28T02:31:23.002Z,3.97
2022-10-28T02:33:54.327Z,3.47
2022-10-28T02:36:23.524Z,3.80
2022-10-28T02:38:54.870Z,3.67
2022-10-28T02:41:35.617Z,4.35
2022-10-28T02:44:12.134Z,3.90
2022-10-28T02:46:41.972Z,3.88
2022-10-28T02:49:13.856Z,3.90
2022-10-28T02:51:49.565Z,4.25
2022-10-28T02:54:19.309Z,4.32
2022-10-28T02:56:53.148Z,4.30
2022-10-28T02:59:19.782Z,4.05
2022-10-28T03:01:46.506Z,3.67
2022-10-28T03:04:13.095Z,4.20
2022-10-28T03:06:39.592Z,5.35
2022-10-28T03:09:06.157Z,4.32
2022-10-28T03:11:32.723Z,3.90
2022-10-28T03:13:59.223Z,3.97
2022-10-28T03:16:27.705Z,4.20
2022-10-28T03:18:55.597Z,4.20
2022-10-28T03:21:22.259Z,3.90
2022-10-28T03:23:49.139Z,4.80
2022-10-28T03:26:15.719Z,4.57
2022-10-28T03:28:42.264Z,5.65
2022-10-28T03:31:08.786Z,4.95
2022-10-28T03:33:35.253Z,3.97
2022-10-28T03:36:01.788Z,4.35
2022-10-28T03:38:29.091Z,4.85
2022-10-28T03:40:55.673Z,4.00
2022-10-28T03:43:22.286Z,4.13
2022-10-28T03:45:49.095Z,4.30
2022-10-28T03:48:15.669Z,4.27
2022-10-28T03:50:42.229Z,4.15
2022-10-28T03:53:08.956Z,4.57
2022-10-28T03:55:35.405Z,4.30
2022-10-28T03:58:02.836Z,4.35
2022-10-28T04:00:30.227Z,4.15
2022-10-28T04:02:57.289Z,4.68
2022-10-28T04:05:23.947Z,3.50
2022-10-28T04:07:50.735Z,4.70
2022-10-28T04:10:17.570Z,4.10
2022-10-28T04:12:44.059Z,4.47
2022-10-28T04:15:10.876Z,4.90
2022-10-28T04:17:37.395Z,4.63
2022-10-28T04:20:04.339Z,5.28
2022-10-28T04:22:30.889Z,4.43
2022-10-28T04:24:57.355Z,4.40
2022-10-28T04:27:23.993Z,3.83
2022-10-28T04:29:50.526Z,4.00
2022-10-28T04:32:17.059Z,3.83
2022-10-28T04:34:43.662Z,4.80
2022-10-28T04:37:10.429Z,4.80
2022-10-28T04:39:36.876Z,4.47
2022-10-28T04:42:03.380Z,9.15
2022-10-28T04:44:29.855Z,4.35
2022-10-28T04:46:57.005Z,4.25
2022-10-28T04:49:23.517Z,5.20
2022-10-28T04:51:50.038Z,4.15
2022-10-28T04:54:16.810Z,4.47
2022-10-28T04:56:43.291Z,9.93
2022-10-28T04:59:09.843Z,9.02
2022-10-28T05:01:37.263Z,15.02
2022-10-28T05:04:04.093Z,11.10
2022-10-28T05:06:30.734Z,4.37
2022-10-28T05:08:57.212Z,4.20
2022-10-28T05:11:23.829Z,28.70
2022-10-28T05:13:53.187Z,12.70
2022-10-28T05:16:20.227Z,4.68
2022-10-28T05:18:47.004Z,4.47
2022-10-28T05:21:14.235Z,4.82
2022-10-28T05:23:40.801Z,22.58
2022-10-28T05:26:07.358Z,5.00
2022-10-28T05:28:33.955Z,4.32
2022-10-28T05:31:00.626Z,4.80
2022-10-28T05:33:27.222Z,4.15
2022-10-28T05:35:53.853Z,4.68
2022-10-28T05:38:20.604Z,5.13
2022-10-28T05:40:47.142Z,4.43
2022-10-28T05:43:13.660Z,4.50
2022-10-28T05:45:40.190Z,4.90
2022-10-28T05:48:07.122Z,4.53
2022-10-28T05:50:34.215Z,4.60
2022-10-28T05:53:01.091Z,4.82
2022-10-28T05:55:30.961Z,4.17
2022-10-28T05:57:58.158Z,4.38
2022-10-28T06:00:26.199Z,4.40
2022-10-28T06:02:53.145Z,5.32
2022-10-28T06:05:20.462Z,4.68
2022-10-28T06:07:47.503Z,5.25
2022-10-28T06:10:14.050Z,4.27
2022-10-28T06:12:39.331Z,5.03
2022-10-28T06:15:06.817Z,4.93
2022-10-28T06:17:33.403Z,4.60
2022-10-28T06:20:00.261Z,4.80
2022-10-28T06:22:26.726Z,4.03
2022-10-28T06:24:53.289Z,5.53
2022-10-28T06:27:21.107Z,4.65
2022-10-28T06:33:38.980Z,5.18
2022-10-28T06:36:05.936Z,5.18
2022-10-28T06:38:32.750Z,5.23
2022-10-28T06:40:59.646Z,5.50
2022-10-28T06:43:26.509Z,4.43
2022-10-28T06:45:55.772Z,4.80
2022-10-28T06:48:24.251Z,5.30
2022-10-28T06:50:50.871Z,5.60
2022-10-28T06:53:18.039Z,4.55
2022-10-28T06:55:48.954Z,5.13
2022-10-28T06:58:15.633Z,4.63
2022-10-28T07:00:42.278Z,4.97
2022-10-28T07:03:10.735Z,4.70
2022-10-28T07:05:37.398Z,4.68
2022-10-28T07:08:04.549Z,5.35
2022-10-28T07:10:32.877Z,4.93
2022-10-28T07:12:59.506Z,4.70
2022-10-28T07:15:26.221Z,4.63
2022-10-28T07:17:57.778Z,4.60
2022-10-28T07:20:28.051Z,4.75
2022-10-28T07:23:02.207Z,4.28
2022-10-28T07:25:30.365Z,4.68
2022-10-28T07:27:58.427Z,4.25
2022-10-28T07:30:25.404Z,4.18
2022-10-28T07:32:52.154Z,4.67
2022-10-28T07:35:21.465Z,5.07
2022-10-28T07:37:48.007Z,5.50
2022-10-28T07:40:14.888Z,4.65
2022-10-28T07:42:41.476Z,5.00
2022-10-28T07:45:08.439Z,3.90
2022-10-28T07:47:37.399Z,4.88
2022-10-28T07:50:05.885Z,5.78
2022-10-28T07:52:36.444Z,5.82
2022-10-28T07:55:06.723Z,4.10
2022-10-28T07:57:34.846Z,4.50
2022-10-28T08:00:01.831Z,4.78
2022-10-28T08:02:28.408Z,3.92
2022-10-28T08:04:56.857Z,4.25
2022-10-28T08:07:23.756Z,4.68
2022-10-28T08:09:52.576Z,4.33
2022-10-28T08:12:19.121Z,4.57
2022-10-28T08:14:45.794Z,5.85
2022-10-28T08:17:12.308Z,3.63
2022-10-28T08:19:38.823Z,4.88
2022-10-28T08:22:05.744Z,5.30
2022-10-28T08:24:32.314Z,4.13
2022-10-28T08:26:59.023Z,5.15
2022-10-28T08:29:29.846Z,4.63
2022-10-28T08:31:57.879Z,5.57
2022-10-28T08:34:30.961Z,5.68
2022-10-28T08:37:00.280Z,5.70
2022-10-28T08:39:27.192Z,4.57
2022-10-28T08:42:18.610Z,4.20
2022-10-28T08:45:00.613Z,3.90
2022-10-28T08:47:42.503Z,4.35
2022-10-28T08:50:18.378Z,4.47
2022-10-28T08:52:56.206Z,3.97
2022-10-28T08:55:28.985Z,4.68
2022-10-28T08:58:00.252Z,4.53
2022-10-28T09:00:30.252Z,4.05
2022-10-28T09:03:15.172Z,3.80
2022-10-28T09:05:50.563Z,4.05
2022-10-28T09:08:25.765Z,4.32
2022-10-28T09:11:04.695Z,3.92
2022-10-28T09:14:15.235Z,5.45
2022-10-28T09:16:51.183Z,4.25
2022-10-28T09:19:47.310Z,3.58
2022-10-28T09:22:26.893Z,4.33
2022-10-28T09:24:55.553Z,3.88
2022-10-28T09:27:30.505Z,3.63
2022-10-28T09:30:19.163Z,4.03
2022-10-28T09:32:50.103Z,3.72
2022-10-28T09:35:21.787Z,3.83
2022-10-28T09:37:55.384Z,3.53
2022-10-28T09:40:25.692Z,3.65
2022-10-28T09:43:04.656Z,4.95
2022-10-28T09:45:34.710Z,3.35
2022-10-28T09:48:26.232Z,4.00
2022-10-28T09:50:55.551Z,4.82
2022-10-28T09:53:35.800Z,3.83
2022-10-28T09:56:04.009Z,4.75
2022-10-28T09:58:32.714Z,4.00
2022-10-28T10:00:59.742Z,4.05
2022-10-28T10:03:26.332Z,4.13
2022-10-28T10:05:56.443Z,4.80
2022-10-28T10:08:23.725Z,3.60
2022-10-28T10:11:15.000Z,3.60
2022-10-28T10:13:58.890Z,3.80
2022-10-28T10:16:33.372Z,3.90
2022-10-28T10:19:28.198Z,4.63
2022-10-28T10:21:55.498Z,3.55
2022-10-28T10:24:45.098Z,3.70
2022-10-28T10:27:13.627Z,4.13
2022-10-28T10:29:53.998Z,3.50
2022-10-28T10:32:35.685Z,4.07
2022-10-28T10:35:27.142Z,3.90
2022-10-28T10:37:59.498Z,4.35
2022-10-28T10:40:49.863Z,3.30
2022-10-28T10:43:33.347Z,3.75
2022-10-28T10:46:37.910Z,4.85
2022-10-28T10:49:16.978Z,3.85
2022-10-28T10:51:53.551Z,4.13
2022-10-28T10:54:21.705Z,4.88
2022-10-28T10:57:01.973Z,18.60
2022-10-28T10:59:56.266Z,6.45
2022-10-28T11:02:36.588Z,3.60
2022-10-28T11:05:15.119Z,4.47
2022-10-28T11:07:48.338Z,3.80
2022-10-28T11:10:44.487Z,3.40
2022-10-28T11:13:27.351Z,5.03
2022-10-28T11:16:16.618Z,3.72
2022-10-28T11:18:47.058Z,4.72
2022-10-28T11:21:31.872Z,4.00
2022-10-28T11:24:24.844Z,3.72
2022-10-28T11:26:58.786Z,3.55
2022-10-28T11:29:26.060Z,3.35
2022-10-28T11:34:45.895Z,3.63
2022-10-28T11:37:21.363Z,4.15
2022-10-28T11:39:47.985Z,4.07
2022-10-28T11:42:34.036Z,3.97
2022-10-28T11:45:21.595Z,3.60
2022-10-28T11:48:19.588Z,4.15
2022-10-28T11:51:15.697Z,3.63
2022-10-28T11:54:04.049Z,4.53
2022-10-28T11:56:43.379Z,4.53
2022-10-28T11:59:26.806Z,3.75
2022-10-28T12:02:02.092Z,3.80
2022-10-28T12:04:37.389Z,4.13
2022-10-28T12:07:31.665Z,4.35
2022-10-28T12:10:02.097Z,3.85
2022-10-28T12:12:54.392Z,4.00
2022-10-28T12:15:27.570Z,4.22
2022-10-28T12:18:27.877Z,4.50
2022-10-28T12:20:59.154Z,3.65
2022-10-28T12:23:30.289Z,3.80
2022-10-28T12:26:00.733Z,4.32
2022-10-28T12:28:45.155Z,3.90
2022-10-28T12:31:47.340Z,4.45
2022-10-28T12:34:20.206Z,4.93
2022-10-28T12:37:25.024Z,5.38
2022-10-28T12:40:11.951Z,4.35
2022-10-28T12:42:44.447Z,4.53
2022-10-28T12:45:23.303Z,3.97
2022-10-28T12:48:06.478Z,3.88
2022-10-28T12:50:56.840Z,5.05
2022-10-28T12:53:44.363Z,4.53
2022-10-28T12:56:20.720Z,4.03
2022-10-28T12:58:50.368Z,3.90
2022-10-28T13:01:19.938Z,3.97
2022-10-28T13:03:58.222Z,3.60
2022-10-28T13:06:57.081Z,4.10
2022-10-28T13:09:50.302Z,3.83
2022-10-28T13:12:42.785Z,3.92
2022-10-28T13:15:34.239Z,4.63
2022-10-28T13:18:52.184Z,4.20
2022-10-28T13:21:38.594Z,4.25
2022-10-28T13:24:17.452Z,6.45
2022-10-28T13:26:45.539Z,3.88
2022-10-28T13:29:38.667Z,4.25
2022-10-28T13:32:05.862Z,3.85
2022-10-28T13:34:38.887Z,3.45
2022-10-28T13:37:07.233Z,4.10
2022-10-28T13:39:46.756Z,16.10
2022-10-28T13:42:19.555Z,6.82
2022-10-28T13:44:50.412Z,11.77
2022-10-28T13:47:16.926Z,3.88
2022-10-28T13:50:08.806Z,3.47
2022-10-28T13:52:36.411Z,3.92
2022-10-28T13:58:06.157Z,3.55
2022-10-28T14:00:32.759Z,4.15
2022-10-28T14:03:01.445Z,3.70
2022-10-28T14:05:48.823Z,3.80
2022-10-28T14:08:31.067Z,3.78
2022-10-28T14:11:14.405Z,3.83
2022-10-28T14:14:00.019Z,3.80
2022-10-28T14:16:29.309Z,5.70
2022-10-28T14:19:01.448Z,4.22
2022-10-28T14:22:02.925Z,7.82
2022-10-28T14:24:33.816Z,5.57
2022-10-28T14:27:06.692Z,3.83
2022-10-28T14:30:09.759Z,4.25
2022-10-28T14:32:56.264Z,3.75
2022-10-28T14:35:33.127Z,4.70
2022-10-28T14:38:14.452Z,3.70
2022-10-28T14:41:06.726Z,4.03
2022-10-28T14:43:53.828Z,3.85
2022-10-28T14:49:20.001Z,5.50
2022-10-28T14:51:51.097Z,3.95
2022-10-28T14:54:46.990Z,4.40
2022-10-28T14:57:13.851Z,3.60
2022-10-28T14:59:44.218Z,3.92
2022-10-28T15:02:24.799Z,4.28
2022-10-28T15:05:24.819Z,4.57
2022-10-28T15:07:51.669Z,4.95
2022-10-28T15:10:24.347Z,4.20
2022-10-28T15:12:52.513Z,4.95
2022-10-28T15:21:11.236Z,4.00
2022-10-28T15:23:38.897Z,8.02
2022-10-28T15:26:13.394Z,5.55
2022-10-28T15:28:41.019Z,8.88
2022-10-28T15:31:08.130Z,6.60
2022-10-28T15:33:42.283Z,5.38
2022-10-28T15:36:21.054Z,6.95
2022-10-28T15:38:52.839Z,7.28
2022-10-28T15:41:28.104Z,6.40
2022-10-28T15:43:57.315Z,7.57
2022-10-28T15:46:24.844Z,4.97
2022-10-28T15:48:56.762Z,5.90
2022-10-28T15:51:23.894Z,7.35
2022-10-28T15:53:56.116Z,5.20
2022-10-28T15:56:31.421Z,5.72
2022-10-28T15:59:16.906Z,5.75
2022-10-28T16:01:43.551Z,5.72
2022-10-28T16:04:35.569Z,7.37
2022-10-28T16:07:08.299Z,8.32
2022-10-28T16:09:37.791Z,7.85
2022-10-28T16:12:22.450Z,7.35
2022-10-28T16:14:56.074Z,8.77
2022-10-28T16:17:26.973Z,4.75
2022-10-28T16:20:04.596Z,4.72
2022-10-28T16:24:58.030Z,6.28
2022-10-28T16:27:27.862Z,7.53
2022-10-28T16:29:54.661Z,6.15
2022-10-28T16:32:33.918Z,7.07
2022-10-28T16:35:02.307Z,8.63
2022-10-28T16:37:31.634Z,8.13
2022-10-28T16:39:58.253Z,7.82
2022-10-28T16:42:25.177Z,11.67
2022-10-28T16:44:52.235Z,7.35
2022-10-28T16:47:21.753Z,8.15
2022-10-28T16:49:54.379Z,8.18
2022-10-28T16:52:29.962Z,7.60
2022-10-28T16:54:57.578Z,7.32
2022-10-28T16:57:25.240Z,7.60
2022-10-28T16:59:52.013Z,7.97
2022-10-28T17:02:34.879Z,8.77
2022-10-28T17:05:05.011Z,7.70
2022-10-28T17:07:34.509Z,6.05
2022-10-28T17:10:01.091Z,8.77
2022-10-28T17:12:27.890Z,6.80
2022-10-28T17:14:54.561Z,7.00
2022-10-28T17:17:21.475Z,6.35
2022-10-28T17:20:09.311Z,8.13
2022-10-28T17:22:35.828Z,8.10
2022-10-28T17:25:02.319Z,7.28
2022-10-28T17:27:28.793Z,7.47
2022-10-28T17:29:55.373Z,7.43
2022-10-28T17:32:22.057Z,8.60
2022-10-28T17:34:48.869Z,8.43
2022-10-28T17:37:20.222Z,9.43
2022-10-28T17:39:46.725Z,8.02
2022-10-28T17:42:13.253Z,8.48
2022-10-28T17:44:39.892Z,8.20
2022-10-28T17:47:06.541Z,7.20
2022-10-28T17:49:34.354Z,8.65
2022-10-28T17:52:00.945Z,7.55
2022-10-28T17:58:39.652Z,7.20
2022-10-28T18:09:13.048Z,6.68
2022-10-28T18:11:40.033Z,6.40
2022-10-28T18:14:06.880Z,6.82
2022-10-28T18:16:35.890Z,7.10
2022-10-28T18:19:05.550Z,6.78
2022-10-28T18:21:32.962Z,6.93
2022-10-28T18:24:05.647Z,7.57
2022-10-28T18:29:17.438Z,7.20
2022-10-28T18:34:24.919Z,7.72
2022-10-28T18:36:51.910Z,8.30
2022-10-28T18:39:18.454Z,8.48
2022-10-28T18:41:44.934Z,9.23
2022-10-28T18:44:17.112Z,8.52
2022-10-28T18:46:45.341Z,11.63
2022-10-28T18:49:11.908Z,9.82
2022-10-28T18:51:38.615Z,9.63
2022-10-28T18:54:05.330Z,9.90
2022-10-28T18:56:34.095Z,9.60
2022-10-28T18:59:03.030Z,9.88
2022-10-28T19:01:31.761Z,8.90
2022-10-28T19:04:01.103Z,9.43
2022-10-28T19:06:32.504Z,8.90
2022-10-28T19:09:01.365Z,8.90
2022-10-28T19:11:32.582Z,9.20
2022-10-28T19:14:01.404Z,8.63
2022-10-28T19:16:28.684Z,9.45
2022-10-28T19:18:59.697Z,9.27
2022-10-28T19:24:07.577Z,9.40
2022-10-28T19:26:34.963Z,9.83
2022-10-28T19:29:03.685Z,16.50
2022-10-28T19:31:30.887Z,10.20
2022-10-28T19:33:57.520Z,11.07
2022-10-28T19:36:26.182Z,10.18
2022-10-28T19:38:57.217Z,9.88
2022-10-28T19:41:29.654Z,9.90
2022-10-28T19:44:01.106Z,11.68
2022-10-28T19:46:29.340Z,11.07
2022-10-28T19:48:59.230Z,10.35
2022-10-28T19:51:31.547Z,10.85
2022-10-28T19:54:00.405Z,10.77
2022-10-28T19:56:28.713Z,10.85
2022-10-28T19:58:57.388Z,10.98
2022-10-28T20:01:26.592Z,12.23
2022-10-28T20:03:54.483Z,12.07
2022-10-28T20:06:26.236Z,12.68
2022-10-28T20:08:53.141Z,11.07
2022-10-28T20:11:25.875Z,10.27
2022-10-28T20:14:01.168Z,10.85
2022-10-28T20:16:28.388Z,10.35
2022-10-28T20:18:55.717Z,10.27
2022-10-28T20:21:23.911Z,10.80
2022-10-28T20:23:55.732Z,11.23
2022-10-28T20:26:28.121Z,10.85
2022-10-28T20:28:55.116Z,10.80
2022-10-28T20:31:23.977Z,10.75
2022-10-28T20:33:53.140Z,9.77
2022-10-28T20:36:32.953Z,10.52
2022-10-28T20:39:01.761Z,9.85
2022-10-28T20:44:12.337Z,10.95
2022-10-28T20:49:19.508Z,9.63
2022-10-28T20:51:46.099Z,10.23
2022-10-28T20:54:21.007Z,10.32
2022-10-28T20:56:47.469Z,10.40
2022-10-28T20:59:13.901Z,11.80
2022-10-28T21:01:48.690Z,11.20
2022-10-28T21:04:15.328Z,10.25
2022-10-28T21:06:41.805Z,10.45
2022-10-28T21:09:08.992Z,11.23
2022-10-28T21:11:35.890Z,11.48
2022-10-28T21:14:02.573Z,10.80
2022-10-28T21:16:29.980Z,11.30
2022-10-28T21:18:56.626Z,12.15
2022-10-28T21:21:24.237Z,10.93
2022-10-28T21:23:51.018Z,12.02
2022-10-28T21:26:20.654Z,12.73
2022-10-28T21:28:52.001Z,12.30
2022-10-28T21:31:19.827Z,11.68
2022-10-28T21:33:46.700Z,12.40
2022-10-28T21:36:16.092Z,11.80
2022-10-28T21:38:43.308Z,10.43
2022-10-28T21:41:15.973Z,11.18
2022-10-28T21:43:44.807Z,12.20
2022-10-28T21:46:11.585Z,13.93
2022-10-28T21:48:38.713Z,10.47
2022-10-28T21:51:10.202Z,10.80
2022-10-28T21:53:41.400Z,12.35
2022-10-28T21:56:15.580Z,11.53
2022-10-28T21:58:43.995Z,10.73
2022-10-28T22:01:11.894Z,11.25
2022-10-28T22:03:39.287Z,12.20
2022-10-28T22:06:06.638Z,11.52
2022-10-28T22:08:33.529Z,10.98
2022-10-28T22:11:12.651Z,11.47
2022-10-28T22:13:39.146Z,11.05
2022-10-28T22:16:08.325Z,12.43
2022-10-28T22:18:37.142Z,12.52
2022-10-28T22:21:05.669Z,12.18
2022-10-28T22:23:32.305Z,10.95
2022-10-28T22:26:03.038Z,10.88
2022-10-28T22:28:29.676Z,11.15
2022-10-28T22:31:00.612Z,10.35
2022-10-28T22:33:27.269Z,9.98
2022-10-28T22:35:58.214Z,10.90
2022-10-28T22:38:24.959Z,9.85
2022-10-28T22:41:06.089Z,10.50
2022-10-28T22:43:33.364Z,12.10
2022-10-28T22:46:00.697Z,11.52
2022-10-28T22:48:27.584Z,11.00
2022-10-28T22:50:54.446Z,10.17
2022-10-28T22:53:21.003Z,10.60
2022-10-28T22:55:48.275Z,10.23
2022-10-28T22:58:16.447Z,8.98
2022-10-28T23:00:44.726Z,9.55
2022-10-28T23:03:12.335Z,10.25
2022-10-28T23:05:41.008Z,10.05
2022-10-28T23:08:08.203Z,9.45
2022-10-28T23:10:34.982Z,10.65
2022-10-28T23:13:02.610Z,9.25
2022-10-28T23:17:56.289Z,10.03
2022-10-28T23:20:25.457Z,10.40
2022-10-28T23:22:56.315Z,9.20
2022-10-28T23:25:23.055Z,9.48
2022-10-28T23:27:49.509Z,9.38
2022-10-28T23:30:16.073Z,10.55
2022-10-28T23:32:42.651Z,9.50
2022-10-28T23:35:09.564Z,9.43
2022-10-28T23:37:36.430Z,9.93
2022-10-28T23:40:03.199Z,9.30
2022-10-28T23:42:29.752Z,9.33
2022-10-28T23:44:56.293Z,9.57
2022-10-28T23:47:22.792Z,8.85
2022-10-28T23:49:49.258Z,9.80
2022-10-28T23:52:15.704Z,9.68
2022-10-28T23:54:42.492Z,9.45
